POGODA: Poland

Lotnisko: Wroclaw Ii

METAR KOD: EPWR


METAR: EPWR 200800Z 09009KT 9999 BKN023 13/08 Q1014


BLOK
Pogoda METAR
200800Z
Dzien: 20, Godzina: 08:00 UTC.
09009KT
Wiatr z kierunku 090, o predkosci 17 km/h
9999
Widzialnosc pozioma ponad 10 km.
BKN023
5/8 - 7/8 pokrycia nieba, chmurami o podstawie: 690 metrow
13/08
Temperatura: powietrze 13°C, punkt rosy 8°C . Wilgotnosc wzgledna 62 %
Q1014
Cisnienie: 1014 hPa

Pogoda na innym lotnisku

Pogoda Gdansk-Rebiechowo WEATHER Poland  
Pogoda Katowice WEATHER Poland  
Pogoda Krakow WEATHER Poland  
Pogoda Poznan WEATHER Poland  
Pogoda Rzeszow-Jasionka WEATHER Poland  
Pogoda Szczecin WEATHER Poland  
Pogoda Warszawa-Okecie WEATHER Poland  
Pogoda Wroclaw Ii WEATHER Poland  

Pogoda w inny kraju

Strona startowa

(C) by GREGOR 2007
Ogłoszenia Towarzyskie